createdAt,value
2023-11-18T00:04:57.537Z,114.40
2023-11-18T00:09:57.516Z,136.20
2023-11-18T00:14:57.492Z,131.10
2023-11-18T00:19:57.426Z,140.70
2023-11-18T00:24:57.647Z,129.40
2023-11-18T00:29:57.333Z,111.50
2023-11-18T00:34:57.442Z,109.50
2023-11-18T00:39:57.795Z,102.70
2023-11-18T00:44:57.136Z,115.20
2023-11-18T00:49:59.391Z,86.50
2023-11-18T00:54:58.151Z,96.80
2023-11-18T01:00:04.987Z,94.10
2023-11-18T01:04:58.466Z,100.20
2023-11-18T01:09:58.348Z,96.40
2023-11-18T01:15:01.071Z,85.50
2023-11-18T01:19:57.278Z,79.00
2023-11-18T01:24:58.120Z,95.60
2023-11-18T01:29:57.403Z,107.80
2023-11-18T01:34:58.720Z,93.40
2023-11-18T01:39:57.109Z,86.40
2023-11-18T01:44:57.090Z,95.30
2023-11-18T01:49:57.225Z,81.30
2023-11-18T01:54:58.097Z,90.50
2023-11-18T01:59:57.642Z,77.90
2023-11-18T02:04:56.700Z,80.30
2023-11-18T02:09:56.727Z,65.70
2023-11-18T02:14:57.072Z,58.40
2023-11-18T02:20:16.283Z,65.40
2023-11-18T02:25:11.778Z,69.90
2023-11-18T02:29:56.385Z,69.60
2023-11-18T02:34:57.186Z,70.00
2023-11-18T02:39:55.885Z,59.20
2023-11-18T02:44:55.947Z,52.40
2023-11-18T02:49:58.806Z,69.60
2023-11-18T02:54:55.713Z,58.20
2023-11-18T02:59:57.991Z,65.90
2023-11-18T03:04:55.608Z,53.30
2023-11-18T03:09:55.764Z,65.80
2023-11-18T03:14:55.489Z,58.60
2023-11-18T03:19:55.500Z,49.70
2023-11-18T03:24:55.440Z,48.40
2023-11-18T03:29:56.749Z,57.00
2023-11-18T03:34:58.364Z,55.60
2023-11-18T03:39:55.443Z,53.30
2023-11-18T03:44:55.557Z,53.90
2023-11-18T03:49:55.112Z,53.60
2023-11-18T03:54:55.390Z,63.60
2023-11-18T04:00:00.504Z,56.80
2023-11-18T04:04:56.006Z,54.90
2023-11-18T04:09:54.912Z,60.70
2023-11-18T04:14:54.909Z,53.50
2023-11-18T04:19:58.904Z,51.50
2023-11-18T04:24:54.934Z,67.00
2023-11-18T04:29:54.687Z,47.00
2023-11-18T04:34:54.784Z,56.80
2023-11-18T04:39:54.972Z,61.20
2023-11-18T04:44:54.575Z,61.50
2023-11-18T04:49:55.037Z,60.40
2023-11-18T04:54:54.627Z,59.90
2023-11-18T04:59:55.405Z,51.60
2023-11-18T05:04:54.463Z,61.00
2023-11-18T05:09:54.258Z,56.80
2023-11-18T05:14:54.255Z,62.10
2023-11-18T05:19:54.291Z,56.70
2023-11-18T05:24:54.082Z,60.60
2023-11-18T05:29:54.147Z,63.10
2023-11-18T05:34:54.065Z,55.20
2023-11-18T05:39:53.975Z,64.00
2023-11-18T05:44:53.922Z,58.40
2023-11-18T05:49:53.976Z,62.10
2023-11-18T05:54:53.784Z,59.00
2023-11-18T05:59:53.692Z,54.30
2023-11-18T06:04:53.666Z,58.80
2023-11-18T06:09:53.697Z,57.80
2023-11-18T06:14:53.889Z,62.10
2023-11-18T06:19:53.850Z,58.30
2023-11-18T06:24:53.431Z,72.10
2023-11-18T06:29:53.416Z,58.10
2023-11-18T06:34:53.422Z,57.90
2023-11-18T06:39:53.420Z,63.40
2023-11-18T06:46:26.796Z,63.80
2023-11-18T06:51:27.029Z,65.50
2023-11-18T06:56:26.469Z,59.40
2023-11-18T07:01:26.673Z,52.80
2023-11-18T07:06:26.342Z,64.20
2023-11-18T07:11:26.249Z,68.60
2023-11-18T07:16:26.227Z,58.50
2023-11-18T07:21:26.124Z,64.00
2023-11-18T07:26:26.050Z,59.10
2023-11-18T07:31:26.156Z,52.40
2023-11-18T07:36:25.925Z,57.20
2023-11-18T07:41:25.934Z,61.00
2023-11-18T07:46:25.921Z,63.40
2023-11-18T07:51:25.949Z,60.00
2023-11-18T07:56:25.736Z,61.30
2023-11-18T08:01:25.800Z,59.50
2023-11-18T08:06:25.616Z,56.70
2023-11-18T08:11:25.629Z,57.30
2023-11-18T08:16:25.571Z,49.80
2023-11-18T08:21:25.445Z,55.10
2023-11-18T08:26:25.395Z,50.20
2023-11-18T08:31:25.399Z,49.00
2023-11-18T08:36:25.368Z,47.70
2023-11-18T08:41:25.175Z,30.80
2023-11-18T08:46:25.312Z,30.80
2023-11-18T08:51:25.155Z,30.10
2023-11-18T08:56:25.127Z,34.00
2023-11-18T09:01:24.987Z,31.30
2023-11-18T09:06:25.121Z,26.40
2023-11-18T09:11:25.798Z,29.60
2023-11-18T09:16:25.011Z,26.20
2023-11-18T09:21:24.918Z,24.30
2023-11-18T09:26:24.976Z,19.70
2023-11-18T09:31:24.849Z,23.30
2023-11-18T09:36:24.870Z,22.10
2023-11-18T09:41:24.725Z,21.10
2023-11-18T09:46:24.830Z,18.40
2023-11-18T09:51:24.701Z,18.20
2023-11-18T09:56:24.515Z,17.60
2023-11-18T10:01:24.539Z,18.50
2023-11-18T10:06:24.464Z,18.70
2023-11-18T10:11:24.403Z,20.60
2023-11-18T10:16:24.330Z,18.60
2023-11-18T10:21:24.327Z,16.80
2023-11-18T10:26:24.127Z,20.80
2023-11-18T10:31:24.064Z,15.00
2023-11-18T10:36:24.112Z,13.10
2023-11-18T10:41:24.153Z,16.30
2023-11-18T10:46:23.970Z,14.40
2023-11-18T10:51:23.861Z,12.90
2023-11-18T10:56:23.876Z,13.80
2023-11-18T11:01:23.997Z,11.90
2023-11-18T11:06:23.783Z,17.20
2023-11-18T11:11:23.750Z,14.90
2023-11-18T11:16:23.634Z,13.50
2023-11-18T11:21:23.509Z,15.80
2023-11-18T11:26:23.552Z,11.30
2023-11-18T11:31:23.389Z,12.70
2023-11-18T11:36:23.375Z,12.20
2023-11-18T11:41:23.300Z,20.50
2023-11-18T11:46:23.291Z,17.90
2023-11-18T11:51:23.178Z,18.90
2023-11-18T11:56:23.321Z,19.10
2023-11-18T12:01:23.056Z,21.90
2023-11-18T12:06:23.094Z,33.30
2023-11-18T12:11:23.085Z,18.20
2023-11-18T12:16:23.039Z,16.30
2023-11-18T12:21:22.905Z,22.90
2023-11-18T12:26:22.778Z,18.20
2023-11-18T12:31:23.030Z,11.40
2023-11-18T12:36:23.213Z,14.80
2023-11-18T12:41:22.854Z,15.00
2023-11-18T12:46:23.801Z,9.80
2023-11-18T12:51:22.717Z,11.10
2023-11-18T12:56:22.812Z,14.10
2023-11-18T13:01:22.583Z,15.60
2023-11-18T13:06:24.592Z,14.80
2023-11-18T13:11:22.608Z,13.00
2023-11-18T13:16:22.267Z,43.10
2023-11-18T13:21:22.205Z,21.30
2023-11-18T13:26:22.286Z,19.50
2023-11-18T13:31:22.123Z,10.60
2023-11-18T13:36:22.358Z,12.10
2023-11-18T13:41:22.124Z,18.50
2023-11-18T13:46:21.915Z,10.90
2023-11-18T13:51:21.945Z,12.50
2023-11-18T13:56:21.880Z,15.40
2023-11-18T14:01:21.832Z,20.50
2023-11-18T14:06:21.731Z,12.20
2023-11-18T14:11:21.697Z,12.80
2023-11-18T14:16:21.607Z,11.90
2023-11-18T14:21:21.646Z,10.30
2023-11-18T14:26:21.507Z,11.60
2023-11-18T14:31:21.499Z,19.70
2023-11-18T14:36:21.419Z,10.70
2023-11-18T14:41:21.414Z,12.00
2023-11-18T14:46:21.415Z,7.60
2023-11-18T14:51:21.224Z,9.60
2023-11-18T14:56:21.267Z,9.50
2023-11-18T15:01:21.276Z,13.20
2023-11-18T15:06:21.540Z,13.00
2023-11-18T15:11:21.206Z,9.80
2023-11-18T15:16:21.145Z,12.70
2023-11-18T15:21:21.232Z,20.40
2023-11-18T15:26:20.888Z,12.50
2023-11-18T15:31:20.896Z,7.20
2023-11-18T15:36:21.814Z,8.80
2023-11-18T15:41:25.251Z,10.80
2023-11-18T15:46:20.727Z,11.90
2023-11-18T15:51:20.602Z,6.50
2023-11-18T15:56:20.550Z,5.80
2023-11-18T16:01:20.496Z,8.10
2023-11-18T16:06:20.553Z,11.70
2023-11-18T16:11:20.472Z,7.50
2023-11-18T16:16:20.458Z,6.80
2023-11-18T16:21:20.276Z,10.10
2023-11-18T16:26:20.321Z,5.40
2023-11-18T16:31:20.294Z,6.10
2023-11-18T16:36:20.129Z,35.30
2023-11-18T16:41:21.728Z,9.30
2023-11-18T16:46:20.008Z,3.80
2023-11-18T16:51:19.939Z,6.40
2023-11-18T16:56:20.025Z,15.60
2023-11-18T17:01:20.315Z,5.20
2023-11-18T17:06:22.009Z,41.50
2023-11-18T17:11:23.937Z,22.30
2023-11-18T17:16:20.092Z,5.90
2023-11-18T17:21:19.701Z,16.20
2023-11-18T17:26:19.650Z,6.30
2023-11-18T17:31:19.579Z,8.80
2023-11-18T17:36:19.474Z,5.10
2023-11-18T17:41:22.895Z,11.70
2023-11-18T17:46:19.685Z,20.50
2023-11-18T17:51:19.510Z,26.50
2023-11-18T17:56:19.315Z,12.00
2023-11-18T18:01:20.999Z,48.30
2023-11-18T18:06:19.179Z,6.50
2023-11-18T18:11:19.272Z,2.90
2023-11-18T18:16:19.155Z,7.10
2023-11-18T18:21:19.080Z,11.00
2023-11-18T18:26:20.033Z,2.80
2023-11-18T18:31:20.287Z,10.40
2023-11-18T18:36:20.307Z,10.90
2023-11-18T18:41:18.773Z,14.70
2023-11-18T18:46:19.817Z,8.10
2023-11-18T18:51:18.693Z,13.20
2023-11-18T18:56:18.745Z,19.60
2023-11-18T19:01:19.314Z,7.40
2023-11-18T19:06:18.736Z,8.70
2023-11-18T19:11:19.694Z,7.40
2023-11-18T19:16:18.604Z,4.70
2023-11-18T19:21:19.291Z,6.10
2023-11-18T19:26:18.403Z,18.60
2023-11-18T19:31:18.224Z,11.30
2023-11-18T19:36:18.205Z,12.20
2023-11-18T19:41:18.135Z,45.90
2023-11-18T19:46:18.193Z,13.40
2023-11-18T19:51:18.064Z,31.20
2023-11-18T19:56:18.109Z,4.20
2023-11-18T20:01:19.049Z,7.70
2023-11-18T20:06:17.884Z,10.90
2023-11-18T20:11:17.883Z,11.40
2023-11-18T20:16:17.746Z,12.40
2023-11-18T20:21:17.864Z,7.30
2023-11-18T20:26:17.889Z,4.30
2023-11-18T20:31:17.845Z,3.30
2023-11-18T20:36:17.910Z,5.20
2023-11-18T20:41:20.329Z,3.50
2023-11-18T20:46:17.459Z,3.00
2023-11-18T20:51:17.510Z,3.10
2023-11-18T20:56:17.351Z,3.40
2023-11-18T21:01:17.230Z,3.30
2023-11-18T21:06:21.606Z,9.80
2023-11-18T21:11:18.264Z,5.10
2023-11-18T21:16:17.160Z,3.80
2023-11-18T21:21:17.106Z,4.10
2023-11-18T21:26:17.128Z,3.80
2023-11-18T21:31:16.919Z,6.80
2023-11-18T21:36:16.882Z,3.90
2023-11-18T21:41:17.024Z,3.80
2023-11-18T21:46:16.782Z,5.00
2023-11-18T21:51:18.825Z,4.00
2023-11-18T21:56:16.727Z,6.00
2023-11-18T22:01:16.583Z,6.70
2023-11-18T22:06:19.970Z,7.10
2023-11-18T22:11:20.131Z,4.30
2023-11-18T22:16:16.477Z,11.10
2023-11-18T22:21:16.378Z,6.20
2023-11-18T22:26:16.332Z,7.50
2023-11-18T22:31:16.464Z,5.80
2023-11-18T22:36:16.221Z,5.90
2023-11-18T22:41:17.176Z,5.90
2023-11-18T22:46:16.246Z,10.10
2023-11-18T22:51:16.206Z,5.60
2023-11-18T22:56:16.096Z,5.30
2023-11-18T23:01:15.969Z,4.30
2023-11-18T23:06:15.928Z,4.80
2023-11-18T23:11:15.851Z,5.20
2023-11-18T23:16:15.810Z,3.90
2023-11-18T23:21:16.061Z,9.30
2023-11-18T23:26:15.663Z,4.50
2023-11-18T23:31:15.639Z,5.70
2023-11-18T23:36:15.591Z,5.40
2023-11-18T23:41:15.532Z,4.40
2023-11-18T23:46:15.735Z,5.60
2023-11-18T23:51:15.482Z,4.90
2023-11-18T23:56:15.372Z,6.10
